sensor_id;sensor_type;location;lat;lon;timestamp;temperature;humidity
75824;DHT22;64457;51.976;9.834;2023-05-31T00:02:08;15.90;90.40
75824;DHT22;64457;51.976;9.834;2023-05-31T00:04:36;15.80;90.90
75824;DHT22;64457;51.976;9.834;2023-05-31T00:07:05;15.80;90.50
75824;DHT22;64457;51.976;9.834;2023-05-31T00:09:36;15.80;90.70
75824;DHT22;64457;51.976;9.834;2023-05-31T00:12:04;15.80;90.40
75824;DHT22;64457;51.976;9.834;2023-05-31T00:14:38;15.70;90.70
75824;DHT22;64457;51.976;9.834;2023-05-31T00:17:10;15.70;90.50
75824;DHT22;64457;51.976;9.834;2023-05-31T00:19:38;15.50;90.60
75824;DHT22;64457;51.976;9.834;2023-05-31T00:22:09;15.60;90.60
75824;DHT22;64457;51.976;9.834;2023-05-31T00:24:37;15.50;90.80
75824;DHT22;64457;51.976;9.834;2023-05-31T00:27:06;15.60;91.20
75824;DHT22;64457;51.976;9.834;2023-05-31T00:29:37;15.50;91.10
75824;DHT22;64457;51.976;9.834;2023-05-31T00:32:05;15.30;91.70
75824;DHT22;64457;51.976;9.834;2023-05-31T00:34:37;15.30;91.70
75824;DHT22;64457;51.976;9.834;2023-05-31T00:37:05;15.40;91.60
75824;DHT22;64457;51.976;9.834;2023-05-31T00:39:35;15.30;91.20
75824;DHT22;64457;51.976;9.834;2023-05-31T00:42:02;15.30;91.40
75824;DHT22;64457;51.976;9.834;2023-05-31T00:44:32;15.30;91.00
75824;DHT22;64457;51.976;9.834;2023-05-31T00:47:01;15.30;91.10
75824;DHT22;64457;51.976;9.834;2023-05-31T00:49:29;15.10;91.80
75824;DHT22;64457;51.976;9.834;2023-05-31T00:52:00;14.80;92.70
75824;DHT22;64457;51.976;9.834;2023-05-31T00:54:28;14.60;93.20
75824;DHT22;64457;51.976;9.834;2023-05-31T00:56:56;14.80;93.40
75824;DHT22;64457;51.976;9.834;2023-05-31T00:59:24;14.90;93.00
75824;DHT22;64457;51.976;9.834;2023-05-31T01:01:54;14.90;93.20
75824;DHT22;64457;51.976;9.834;2023-05-31T01:04:22;15.00;92.90
75824;DHT22;64457;51.976;9.834;2023-05-31T01:06:51;15.10;92.30
75824;DHT22;64457;51.976;9.834;2023-05-31T01:09:22;15.10;91.50
75824;DHT22;64457;51.976;9.834;2023-05-31T01:12:02;15.20;91.40
75824;DHT22;64457;51.976;9.834;2023-05-31T01:14:44;15.20;91.10
75824;DHT22;64457;51.976;9.834;2023-05-31T01:17:22;14.90;91.50
75824;DHT22;64457;51.976;9.834;2023-05-31T01:19:59;14.80;92.10
75824;DHT22;64457;51.976;9.834;2023-05-31T01:22:40;14.80;92.00
75824;DHT22;64457;51.976;9.834;2023-05-31T01:25:27;14.80;92.10
75824;DHT22;64457;51.976;9.834;2023-05-31T01:28:06;14.90;91.70
75824;DHT22;64457;51.976;9.834;2023-05-31T01:30:36;14.90;91.50
75824;DHT22;64457;51.976;9.834;2023-05-31T01:33:08;14.90;91.20
75824;DHT22;64457;51.976;9.834;2023-05-31T01:35:38;14.90;91.10
75824;DHT22;64457;51.976;9.834;2023-05-31T01:38:06;14.70;91.40
75824;DHT22;64457;51.976;9.834;2023-05-31T01:40:34;14.70;91.80
75824;DHT22;64457;51.976;9.834;2023-05-31T01:43:05;14.70;91.60
75824;DHT22;64457;51.976;9.834;2023-05-31T01:45:33;14.70;91.50
75824;DHT22;64457;51.976;9.834;2023-05-31T01:48:04;14.70;91.90
75824;DHT22;64457;51.976;9.834;2023-05-31T01:50:33;14.70;91.80
75824;DHT22;64457;51.976;9.834;2023-05-31T01:53:03;14.70;91.60
75824;DHT22;64457;51.976;9.834;2023-05-31T01:55:32;14.80;91.60
75824;DHT22;64457;51.976;9.834;2023-05-31T01:58:02;14.70;91.50
75824;DHT22;64457;51.976;9.834;2023-05-31T02:00:31;14.70;91.90
75824;DHT22;64457;51.976;9.834;2023-05-31T02:02:59;14.60;92.20
75824;DHT22;64457;51.976;9.834;2023-05-31T02:05:28;14.50;92.40
75824;DHT22;64457;51.976;9.834;2023-05-31T02:07:56;14.50;92.40
75824;DHT22;64457;51.976;9.834;2023-05-31T02:10:24;14.60;92.20
75824;DHT22;64457;51.976;9.834;2023-05-31T02:12:52;14.50;91.70
75824;DHT22;64457;51.976;9.834;2023-05-31T02:15:21;14.50;91.50
75824;DHT22;64457;51.976;9.834;2023-05-31T02:17:51;14.50;91.70
75824;DHT22;64457;51.976;9.834;2023-05-31T02:20:19;14.50;92.00
75824;DHT22;64457;51.976;9.834;2023-05-31T02:22:50;14.40;92.40
75824;DHT22;64457;51.976;9.834;2023-05-31T02:25:17;14.30;92.90
75824;DHT22;64457;51.976;9.834;2023-05-31T02:27:45;14.30;92.80
75824;DHT22;64457;51.976;9.834;2023-05-31T02:30:13;14.30;93.00
75824;DHT22;64457;51.976;9.834;2023-05-31T02:32:41;14.10;93.30
75824;DHT22;64457;51.976;9.834;2023-05-31T02:35:11;14.20;93.30
75824;DHT22;64457;51.976;9.834;2023-05-31T02:37:39;14.20;93.50
75824;DHT22;64457;51.976;9.834;2023-05-31T02:40:08;14.30;93.20
75824;DHT22;64457;51.976;9.834;2023-05-31T02:42:38;14.30;93.50
75824;DHT22;64457;51.976;9.834;2023-05-31T02:45:09;14.30;93.10
75824;DHT22;64457;51.976;9.834;2023-05-31T02:47:38;14.30;93.20
75824;DHT22;64457;51.976;9.834;2023-05-31T02:50:07;14.40;93.10
75824;DHT22;64457;51.976;9.834;2023-05-31T02:52:37;14.40;93.20
75824;DHT22;64457;51.976;9.834;2023-05-31T02:55:08;14.40;93.00
75824;DHT22;64457;51.976;9.834;2023-05-31T02:57:36;14.40;92.50
75824;DHT22;64457;51.976;9.834;2023-05-31T03:00:07;14.40;92.90
75824;DHT22;64457;51.976;9.834;2023-05-31T03:02:39;14.40;92.40
75824;DHT22;64457;51.976;9.834;2023-05-31T03:05:08;14.40;92.10
75824;DHT22;64457;51.976;9.834;2023-05-31T03:07:40;14.40;92.00
75824;DHT22;64457;51.976;9.834;2023-05-31T03:10:08;14.40;91.60
75824;DHT22;64457;51.976;9.834;2023-05-31T03:12:36;14.30;91.90
75824;DHT22;64457;51.976;9.834;2023-05-31T03:15:05;14.30;91.70
75824;DHT22;64457;51.976;9.834;2023-05-31T03:17:34;14.30;92.10
75824;DHT22;64457;51.976;9.834;2023-05-31T03:20:04;14.30;91.90
75824;DHT22;64457;51.976;9.834;2023-05-31T03:22:34;14.30;91.70
75824;DHT22;64457;51.976;9.834;2023-05-31T03:25:05;14.30;91.60
75824;DHT22;64457;51.976;9.834;2023-05-31T03:27:34;14.20;91.80
75824;DHT22;64457;51.976;9.834;2023-05-31T03:30:02;14.10;91.80
75824;DHT22;64457;51.976;9.834;2023-05-31T03:32:32;14.10;92.50
75824;DHT22;64457;51.976;9.834;2023-05-31T03:35:01;14.10;92.30
75824;DHT22;64457;51.976;9.834;2023-05-31T03:37:29;14.10;92.30
75824;DHT22;64457;51.976;9.834;2023-05-31T03:39:56;14.10;92.00
75824;DHT22;64457;51.976;9.834;2023-05-31T03:42:27;14.10;91.80
75824;DHT22;64457;51.976;9.834;2023-05-31T03:44:57;14.10;91.50
75824;DHT22;64457;51.976;9.834;2023-05-31T03:47:25;14.10;91.50
75824;DHT22;64457;51.976;9.834;2023-05-31T03:49:54;14.20;91.60
75824;DHT22;64457;51.976;9.834;2023-05-31T03:52:22;14.20;91.60
75824;DHT22;64457;51.976;9.834;2023-05-31T03:54:49;14.20;91.80
75824;DHT22;64457;51.976;9.834;2023-05-31T03:57:17;14.10;91.70
75824;DHT22;64457;51.976;9.834;2023-05-31T03:59:47;14.00;91.80
75824;DHT22;64457;51.976;9.834;2023-05-31T04:02:15;14.00;91.90
75824;DHT22;64457;51.976;9.834;2023-05-31T04:04:42;14.00;92.10
75824;DHT22;64457;51.976;9.834;2023-05-31T04:07:11;14.00;92.10
75824;DHT22;64457;51.976;9.834;2023-05-31T04:09:42;14.10;91.80
75824;DHT22;64457;51.976;9.834;2023-05-31T04:12:09;14.10;91.80
75824;DHT22;64457;51.976;9.834;2023-05-31T04:14:37;14.20;91.70
75824;DHT22;64457;51.976;9.834;2023-05-31T04:17:07;13.90;92.10
75824;DHT22;64457;51.976;9.834;2023-05-31T04:19:35;13.60;93.00
75824;DHT22;64457;51.976;9.834;2023-05-31T04:22:04;13.50;93.60
75824;DHT22;64457;51.976;9.834;2023-05-31T04:24:32;13.60;93.40
75824;DHT22;64457;51.976;9.834;2023-05-31T04:27:00;13.60;93.50
75824;DHT22;64457;51.976;9.834;2023-05-31T04:29:29;13.70;93.60
75824;DHT22;64457;51.976;9.834;2023-05-31T04:32:01;13.90;93.40
75824;DHT22;64457;51.976;9.834;2023-05-31T04:34:29;14.00;93.20
75824;DHT22;64457;51.976;9.834;2023-05-31T04:36:57;14.10;93.00
75824;DHT22;64457;51.976;9.834;2023-05-31T04:39:25;13.90;93.10
75824;DHT22;64457;51.976;9.834;2023-05-31T04:41:53;13.60;94.00
75824;DHT22;64457;51.976;9.834;2023-05-31T04:44:20;13.30;94.40
75824;DHT22;64457;51.976;9.834;2023-05-31T04:46:49;13.40;94.90
75824;DHT22;64457;51.976;9.834;2023-05-31T04:49:16;13.50;94.40
75824;DHT22;64457;51.976;9.834;2023-05-31T04:51:45;13.50;94.80
75824;DHT22;64457;51.976;9.834;2023-05-31T04:54:13;13.80;94.70
75824;DHT22;64457;51.976;9.834;2023-05-31T04:56:41;14.00;94.40
75824;DHT22;64457;51.976;9.834;2023-05-31T04:59:08;14.00;94.00
75824;DHT22;64457;51.976;9.834;2023-05-31T05:01:36;13.90;94.30
75824;DHT22;64457;51.976;9.834;2023-05-31T05:04:07;13.80;94.80
75824;DHT22;64457;51.976;9.834;2023-05-31T05:06:35;13.60;95.40
75824;DHT22;64457;51.976;9.834;2023-05-31T05:09:05;13.50;95.50
75824;DHT22;64457;51.976;9.834;2023-05-31T05:11:32;13.60;95.80
75824;DHT22;64457;51.976;9.834;2023-05-31T05:14:02;13.70;95.50
75824;DHT22;64457;51.976;9.834;2023-05-31T05:16:30;13.70;95.70
75824;DHT22;64457;51.976;9.834;2023-05-31T05:18:57;13.80;95.80
75824;DHT22;64457;51.976;9.834;2023-05-31T05:21:25;13.80;95.80
75824;DHT22;64457;51.976;9.834;2023-05-31T05:23:54;13.90;95.80
75824;DHT22;64457;51.976;9.834;2023-05-31T05:26:23;14.00;95.80
75824;DHT22;64457;51.976;9.834;2023-05-31T05:28:51;14.30;96.00
75824;DHT22;64457;51.976;9.834;2023-05-31T05:31:19;14.70;95.40
75824;DHT22;64457;51.976;9.834;2023-05-31T05:33:47;15.10;94.40
75824;DHT22;64457;51.976;9.834;2023-05-31T05:36:14;15.60;94.10
75824;DHT22;64457;51.976;9.834;2023-05-31T05:38:42;16.30;93.10
75824;DHT22;64457;51.976;9.834;2023-05-31T05:41:10;18.40;90.90
75824;DHT22;64457;51.976;9.834;2023-05-31T05:43:40;21.10;81.40
75824;DHT22;64457;51.976;9.834;2023-05-31T05:46:07;23.80;72.40
75824;DHT22;64457;51.976;9.834;2023-05-31T05:48:35;25.80;65.90
75824;DHT22;64457;51.976;9.834;2023-05-31T05:51:02;27.00;62.80
75824;DHT22;64457;51.976;9.834;2023-05-31T05:53:31;27.10;60.90
75824;DHT22;64457;51.976;9.834;2023-05-31T05:55:58;26.10;61.40
75824;DHT22;64457;51.976;9.834;2023-05-31T05:58:26;25.20;63.90
75824;DHT22;64457;51.976;9.834;2023-05-31T06:00:56;24.60;66.30
75824;DHT22;64457;51.976;9.834;2023-05-31T06:03:24;26.10;63.80
75824;DHT22;64457;51.976;9.834;2023-05-31T06:05:53;28.30;59.30
75824;DHT22;64457;51.976;9.834;2023-05-31T06:08:21;30.60;55.40
75824;DHT22;64457;51.976;9.834;2023-05-31T06:10:49;32.40;52.40
75824;DHT22;64457;51.976;9.834;2023-05-31T06:13:17;33.90;48.40
75824;DHT22;64457;51.976;9.834;2023-05-31T06:15:45;34.90;46.00
75824;DHT22;64457;51.976;9.834;2023-05-31T06:18:14;35.60;45.00
75824;DHT22;64457;51.976;9.834;2023-05-31T06:20:43;36.00;43.40
75824;DHT22;64457;51.976;9.834;2023-05-31T06:23:10;36.20;42.80
75824;DHT22;64457;51.976;9.834;2023-05-31T06:25:38;36.30;41.80
75824;DHT22;64457;51.976;9.834;2023-05-31T06:28:06;36.80;41.80
75824;DHT22;64457;51.976;9.834;2023-05-31T06:30:34;36.90;41.70
75824;DHT22;64457;51.976;9.834;2023-05-31T06:33:01;37.00;40.50
75824;DHT22;64457;51.976;9.834;2023-05-31T06:35:31;36.70;40.30
75824;DHT22;64457;51.976;9.834;2023-05-31T06:37:59;36.70;41.40
75824;DHT22;64457;51.976;9.834;2023-05-31T06:40:28;36.60;41.00
75824;DHT22;64457;51.976;9.834;2023-05-31T06:42:56;37.00;40.10
75824;DHT22;64457;51.976;9.834;2023-05-31T06:45:24;37.30;40.40
75824;DHT22;64457;51.976;9.834;2023-05-31T06:47:53;37.90;40.40
75824;DHT22;64457;51.976;9.834;2023-05-31T06:50:20;38.40;38.90
75824;DHT22;64457;51.976;9.834;2023-05-31T06:52:49;38.60;38.60
75824;DHT22;64457;51.976;9.834;2023-05-31T06:55:17;38.70;37.10
75824;DHT22;64457;51.976;9.834;2023-05-31T06:57:44;38.90;37.70
75824;DHT22;64457;51.976;9.834;2023-05-31T07:00:13;39.30;37.00
75824;DHT22;64457;51.976;9.834;2023-05-31T07:02:42;39.50;36.20
75824;DHT22;64457;51.976;9.834;2023-05-31T07:05:10;39.20;36.10
75824;DHT22;64457;51.976;9.834;2023-05-31T07:07:37;38.60;36.30
75824;DHT22;64457;51.976;9.834;2023-05-31T07:10:09;38.50;36.90
75824;DHT22;64457;51.976;9.834;2023-05-31T07:12:37;38.70;36.20
75824;DHT22;64457;51.976;9.834;2023-05-31T07:15:09;39.20;36.30
75824;DHT22;64457;51.976;9.834;2023-05-31T07:17:37;39.40;35.00
75824;DHT22;64457;51.976;9.834;2023-05-31T07:20:07;39.20;36.10
75824;DHT22;64457;51.976;9.834;2023-05-31T07:22:36;39.30;36.00
75824;DHT22;64457;51.976;9.834;2023-05-31T07:25:04;39.30;36.80
75824;DHT22;64457;51.976;9.834;2023-05-31T07:27:36;39.30;35.10
75824;DHT22;64457;51.976;9.834;2023-05-31T07:30:04;38.80;36.10
75824;DHT22;64457;51.976;9.834;2023-05-31T07:32:34;38.80;35.70
75824;DHT22;64457;51.976;9.834;2023-05-31T07:35:03;38.90;35.80
75824;DHT22;64457;51.976;9.834;2023-05-31T07:37:32;39.30;35.00
75824;DHT22;64457;51.976;9.834;2023-05-31T07:39:59;39.80;34.90
75824;DHT22;64457;51.976;9.834;2023-05-31T07:42:31;39.70;34.70
75824;DHT22;64457;51.976;9.834;2023-05-31T07:45:00;39.70;34.70
75824;DHT22;64457;51.976;9.834;2023-05-31T07:47:28;40.20;34.30
75824;DHT22;64457;51.976;9.834;2023-05-31T07:49:56;40.30;33.50
75824;DHT22;64457;51.976;9.834;2023-05-31T07:52:24;40.80;33.90
75824;DHT22;64457;51.976;9.834;2023-05-31T07:54:52;41.10;34.00
75824;DHT22;64457;51.976;9.834;2023-05-31T07:57:20;40.60;33.10
75824;DHT22;64457;51.976;9.834;2023-05-31T07:59:50;40.40;34.60
75824;DHT22;64457;51.976;9.834;2023-05-31T08:02:21;40.60;34.20
75824;DHT22;64457;51.976;9.834;2023-05-31T08:04:48;40.70;32.90
75824;DHT22;64457;51.976;9.834;2023-05-31T08:07:16;41.10;33.10
75824;DHT22;64457;51.976;9.834;2023-05-31T08:09:44;41.10;33.10
75824;DHT22;64457;51.976;9.834;2023-05-31T08:12:13;40.70;33.30
75824;DHT22;64457;51.976;9.834;2023-05-31T08:14:41;40.50;33.50
75824;DHT22;64457;51.976;9.834;2023-05-31T08:17:09;40.50;33.60
75824;DHT22;64457;51.976;9.834;2023-05-31T08:19:40;40.40;32.80
75824;DHT22;64457;51.976;9.834;2023-05-31T08:22:08;40.70;33.60
75824;DHT22;64457;51.976;9.834;2023-05-31T08:24:36;40.60;33.00
75824;DHT22;64457;51.976;9.834;2023-05-31T08:27:04;40.30;34.90
75824;DHT22;64457;51.976;9.834;2023-05-31T08:29:33;40.50;35.80
75824;DHT22;64457;51.976;9.834;2023-05-31T08:32:01;40.20;33.10
75824;DHT22;64457;51.976;9.834;2023-05-31T08:34:29;40.30;33.60
75824;DHT22;64457;51.976;9.834;2023-05-31T08:37:00;39.70;33.30
75824;DHT22;64457;51.976;9.834;2023-05-31T08:39:28;38.60;35.20
75824;DHT22;64457;51.976;9.834;2023-05-31T08:41:59;38.60;34.80
75824;DHT22;64457;51.976;9.834;2023-05-31T08:44:28;38.60;35.50
75824;DHT22;64457;51.976;9.834;2023-05-31T08:46:58;38.60;35.30
75824;DHT22;64457;51.976;9.834;2023-05-31T08:49:30;39.00;35.20
75824;DHT22;64457;51.976;9.834;2023-05-31T08:52:01;38.90;34.10
75824;DHT22;64457;51.976;9.834;2023-05-31T08:54:29;38.30;33.30
75824;DHT22;64457;51.976;9.834;2023-05-31T08:56:57;38.30;34.00
75824;DHT22;64457;51.976;9.834;2023-05-31T08:59:26;38.20;32.20
75824;DHT22;64457;51.976;9.834;2023-05-31T09:01:54;36.60;35.90
75824;DHT22;64457;51.976;9.834;2023-05-31T09:04:22;36.80;34.70
75824;DHT22;64457;51.976;9.834;2023-05-31T09:06:50;37.20;36.10
75824;DHT22;64457;51.976;9.834;2023-05-31T09:09:20;37.00;35.00
75824;DHT22;64457;51.976;9.834;2023-05-31T09:11:47;36.70;35.60
75824;DHT22;64457;51.976;9.834;2023-05-31T09:14:16;36.50;36.00
75824;DHT22;64457;51.976;9.834;2023-05-31T09:16:44;35.90;36.00
75824;DHT22;64457;51.976;9.834;2023-05-31T09:19:12;34.70;37.70
75824;DHT22;64457;51.976;9.834;2023-05-31T09:21:41;33.90;37.50
75824;DHT22;64457;51.976;9.834;2023-05-31T09:24:13;33.40;39.10
75824;DHT22;64457;51.976;9.834;2023-05-31T09:26:51;31.80;38.30
75824;DHT22;64457;51.976;9.834;2023-05-31T09:29:20;30.80;40.50
75824;DHT22;64457;51.976;9.834;2023-05-31T09:31:48;30.70;44.40
75824;DHT22;64457;51.976;9.834;2023-05-31T09:34:25;30.60;40.20
75824;DHT22;64457;51.976;9.834;2023-05-31T09:36:57;29.70;42.00
75824;DHT22;64457;51.976;9.834;2023-05-31T09:39:25;28.40;44.00
75824;DHT22;64457;51.976;9.834;2023-05-31T09:41:57;27.80;44.60
75824;DHT22;64457;51.976;9.834;2023-05-31T09:44:26;27.70;47.90
75824;DHT22;64457;51.976;9.834;2023-05-31T09:46:54;28.00;46.90
75824;DHT22;64457;51.976;9.834;2023-05-31T09:49:22;28.00;45.80
75824;DHT22;64457;51.976;9.834;2023-05-31T09:51:51;28.10;46.40
75824;DHT22;64457;51.976;9.834;2023-05-31T09:54:19;27.70;46.60
75824;DHT22;64457;51.976;9.834;2023-05-31T09:56:51;27.70;48.20
75824;DHT22;64457;51.976;9.834;2023-05-31T09:59:21;27.90;47.90
75824;DHT22;64457;51.976;9.834;2023-05-31T10:01:49;27.70;47.80
75824;DHT22;64457;51.976;9.834;2023-05-31T10:04:18;27.70;47.30
75824;DHT22;64457;51.976;9.834;2023-05-31T10:06:47;28.00;47.00
75824;DHT22;64457;51.976;9.834;2023-05-31T10:09:15;27.90;46.30
75824;DHT22;64457;51.976;9.834;2023-05-31T10:11:46;27.50;46.80
75824;DHT22;64457;51.976;9.834;2023-05-31T10:14:24;27.70;48.80
75824;DHT22;64457;51.976;9.834;2023-05-31T10:16:54;27.90;47.00
75824;DHT22;64457;51.976;9.834;2023-05-31T10:19:24;28.00;46.40
75824;DHT22;64457;51.976;9.834;2023-05-31T10:21:56;27.40;46.60
75824;DHT22;64457;51.976;9.834;2023-05-31T10:24:28;27.50;48.40
75824;DHT22;64457;51.976;9.834;2023-05-31T10:27:11;27.70;45.50
75824;DHT22;64457;51.976;9.834;2023-05-31T10:29:49;27.30;47.70
75824;DHT22;64457;51.976;9.834;2023-05-31T10:32:20;27.00;48.30
75824;DHT22;64457;51.976;9.834;2023-05-31T10:34:52;27.10;48.60
75824;DHT22;64457;51.976;9.834;2023-05-31T10:37:20;27.00;48.60
75824;DHT22;64457;51.976;9.834;2023-05-31T10:39:58;27.00;47.30
75824;DHT22;64457;51.976;9.834;2023-05-31T10:42:39;26.90;47.70
75824;DHT22;64457;51.976;9.834;2023-05-31T10:45:14;26.90;48.40
75824;DHT22;64457;51.976;9.834;2023-05-31T10:47:51;27.10;48.40
75824;DHT22;64457;51.976;9.834;2023-05-31T10:50:21;27.00;47.00
75824;DHT22;64457;51.976;9.834;2023-05-31T10:52:49;26.80;48.30
75824;DHT22;64457;51.976;9.834;2023-05-31T10:55:21;26.80;49.30
75824;DHT22;64457;51.976;9.834;2023-05-31T10:57:50;27.00;48.20
75824;DHT22;64457;51.976;9.834;2023-05-31T11:00:22;27.00;49.10
75824;DHT22;64457;51.976;9.834;2023-05-31T11:02:52;27.00;48.50
75824;DHT22;64457;51.976;9.834;2023-05-31T11:05:22;26.90;47.20
75824;DHT22;64457;51.976;9.834;2023-05-31T11:07:52;27.20;48.30
75824;DHT22;64457;51.976;9.834;2023-05-31T11:10:26;27.50;47.70
75824;DHT22;64457;51.976;9.834;2023-05-31T11:12:56;27.30;46.70
75824;DHT22;64457;51.976;9.834;2023-05-31T11:15:40;27.10;48.00
75824;DHT22;64457;51.976;9.834;2023-05-31T11:18:15;27.50;45.80
75824;DHT22;64457;51.976;9.834;2023-05-31T11:20:48;27.00;48.30
75824;DHT22;64457;51.976;9.834;2023-05-31T11:23:26;26.90;46.70
75824;DHT22;64457;51.976;9.834;2023-05-31T11:26:16;26.80;47.50
75824;DHT22;64457;51.976;9.834;2023-05-31T11:29:00;26.70;48.20
75824;DHT22;64457;51.976;9.834;2023-05-31T11:32:05;27.20;48.70
75824;DHT22;64457;51.976;9.834;2023-05-31T11:34:36;27.30;47.60
75824;DHT22;64457;51.976;9.834;2023-05-31T11:37:16;27.40;49.20
75824;DHT22;64457;51.976;9.834;2023-05-31T11:39:45;27.20;46.50
75824;DHT22;64457;51.976;9.834;2023-05-31T11:42:13;27.30;48.80
75824;DHT22;64457;51.976;9.834;2023-05-31T11:44:42;27.20;49.40
75824;DHT22;64457;51.976;9.834;2023-05-31T11:47:18;27.50;47.90
75824;DHT22;64457;51.976;9.834;2023-05-31T11:49:49;27.50;48.70
75824;DHT22;64457;51.976;9.834;2023-05-31T11:52:18;27.70;50.10
75824;DHT22;64457;51.976;9.834;2023-05-31T11:54:49;27.70;49.00
75824;DHT22;64457;51.976;9.834;2023-05-31T11:57:19;27.50;47.60
75824;DHT22;64457;51.976;9.834;2023-05-31T11:59:48;27.60;47.30
75824;DHT22;64457;51.976;9.834;2023-05-31T12:02:22;27.40;49.10
75824;DHT22;64457;51.976;9.834;2023-05-31T12:04:50;27.60;49.10
75824;DHT22;64457;51.976;9.834;2023-05-31T12:07:18;27.80;45.50
75824;DHT22;64457;51.976;9.834;2023-05-31T12:09:47;27.80;47.60
75824;DHT22;64457;51.976;9.834;2023-05-31T12:12:15;28.10;46.40
75824;DHT22;64457;51.976;9.834;2023-05-31T12:14:50;28.20;46.80
75824;DHT22;64457;51.976;9.834;2023-05-31T12:17:20;28.30;46.50
75824;DHT22;64457;51.976;9.834;2023-05-31T12:19:48;28.10;46.00
75824;DHT22;64457;51.976;9.834;2023-05-31T12:22:15;27.90;48.00
75824;DHT22;64457;51.976;9.834;2023-05-31T12:24:48;28.00;47.70
75824;DHT22;64457;51.976;9.834;2023-05-31T12:27:16;28.30;48.70
75824;DHT22;64457;51.976;9.834;2023-05-31T12:29:44;28.20;46.70
75824;DHT22;64457;51.976;9.834;2023-05-31T12:32:12;28.00;46.40
75824;DHT22;64457;51.976;9.834;2023-05-31T12:34:42;27.60;46.60
75824;DHT22;64457;51.976;9.834;2023-05-31T12:37:11;27.60;49.20
75824;DHT22;64457;51.976;9.834;2023-05-31T12:39:40;27.90;47.20
75824;DHT22;64457;51.976;9.834;2023-05-31T12:42:09;28.00;46.20
75824;DHT22;64457;51.976;9.834;2023-05-31T12:44:36;27.90;48.00
75824;DHT22;64457;51.976;9.834;2023-05-31T12:47:08;27.90;48.50
75824;DHT22;64457;51.976;9.834;2023-05-31T12:49:36;27.90;47.90
75824;DHT22;64457;51.976;9.834;2023-05-31T12:52:07;28.00;47.20
75824;DHT22;64457;51.976;9.834;2023-05-31T12:54:36;28.30;47.00
75824;DHT22;64457;51.976;9.834;2023-05-31T12:57:06;28.20;47.60
75824;DHT22;64457;51.976;9.834;2023-05-31T12:59:36;28.00;47.70
75824;DHT22;64457;51.976;9.834;2023-05-31T13:02:05;28.10;47.30
75824;DHT22;64457;51.976;9.834;2023-05-31T13:04:34;27.90;47.40
75824;DHT22;64457;51.976;9.834;2023-05-31T13:07:02;28.00;47.00
75824;DHT22;64457;51.976;9.834;2023-05-31T13:09:32;28.00;44.90
75824;DHT22;64457;51.976;9.834;2023-05-31T13:11:59;28.20;46.70
75824;DHT22;64457;51.976;9.834;2023-05-31T13:14:27;28.10;46.30
75824;DHT22;64457;51.976;9.834;2023-05-31T13:16:55;27.90;46.00
75824;DHT22;64457;51.976;9.834;2023-05-31T13:19:23;28.00;44.90
75824;DHT22;64457;51.976;9.834;2023-05-31T13:21:51;28.10;44.50
75824;DHT22;64457;51.976;9.834;2023-05-31T13:24:22;28.20;46.00
75824;DHT22;64457;51.976;9.834;2023-05-31T13:26:50;28.30;45.90
75824;DHT22;64457;51.976;9.834;2023-05-31T13:29:18;28.40;46.30
75824;DHT22;64457;51.976;9.834;2023-05-31T13:31:47;28.40;46.30
75824;DHT22;64457;51.976;9.834;2023-05-31T13:34:15;28.10;47.00
75824;DHT22;64457;51.976;9.834;2023-05-31T13:36:44;28.30;46.40
75824;DHT22;64457;51.976;9.834;2023-05-31T13:39:14;27.90;43.70
75824;DHT22;64457;51.976;9.834;2023-05-31T13:41:44;27.90;46.30
75824;DHT22;64457;51.976;9.834;2023-05-31T13:44:12;28.10;47.00
75824;DHT22;64457;51.976;9.834;2023-05-31T13:46:41;28.20;46.60
75824;DHT22;64457;51.976;9.834;2023-05-31T13:49:09;28.40;44.90
75824;DHT22;64457;51.976;9.834;2023-05-31T13:51:41;28.30;45.50
75824;DHT22;64457;51.976;9.834;2023-05-31T13:54:09;28.20;47.30
75824;DHT22;64457;51.976;9.834;2023-05-31T13:56:37;28.10;46.80
75824;DHT22;64457;51.976;9.834;2023-05-31T13:59:07;28.20;47.00
75824;DHT22;64457;51.976;9.834;2023-05-31T14:01:36;28.30;46.20
75824;DHT22;64457;51.976;9.834;2023-05-31T14:04:04;27.80;46.50
75824;DHT22;64457;51.976;9.834;2023-05-31T14:06:33;27.60;46.20
75824;DHT22;64457;51.976;9.834;2023-05-31T14:09:01;27.60;46.90
75824;DHT22;64457;51.976;9.834;2023-05-31T14:11:29;27.70;48.00
75824;DHT22;64457;51.976;9.834;2023-05-31T14:13:58;27.90;46.60
75824;DHT22;64457;51.976;9.834;2023-05-31T14:16:27;27.80;45.50
75824;DHT22;64457;51.976;9.834;2023-05-31T14:18:55;27.80;46.10
75824;DHT22;64457;51.976;9.834;2023-05-31T14:21:23;27.60;46.30
75824;DHT22;64457;51.976;9.834;2023-05-31T14:23:51;27.60;45.80
75824;DHT22;64457;51.976;9.834;2023-05-31T14:26:20;27.50;45.70
75824;DHT22;64457;51.976;9.834;2023-05-31T14:28:48;27.80;47.30
75824;DHT22;64457;51.976;9.834;2023-05-31T14:31:15;27.80;47.40
75824;DHT22;64457;51.976;9.834;2023-05-31T14:33:44;28.20;45.40
75824;DHT22;64457;51.976;9.834;2023-05-31T14:36:12;28.20;45.90
75824;DHT22;64457;51.976;9.834;2023-05-31T14:38:41;28.30;45.00
75824;DHT22;64457;51.976;9.834;2023-05-31T14:41:09;28.30;44.20
75824;DHT22;64457;51.976;9.834;2023-05-31T14:43:36;28.40;45.40
75824;DHT22;64457;51.976;9.834;2023-05-31T14:46:05;28.50;44.80
75824;DHT22;64457;51.976;9.834;2023-05-31T14:48:33;28.50;43.90
75824;DHT22;64457;51.976;9.834;2023-05-31T14:51:03;28.30;45.30
75824;DHT22;64457;51.976;9.834;2023-05-31T14:53:31;28.20;46.00
75824;DHT22;64457;51.976;9.834;2023-05-31T14:55:58;27.90;45.40
75824;DHT22;64457;51.976;9.834;2023-05-31T14:58:26;27.70;47.20
75824;DHT22;64457;51.976;9.834;2023-05-31T15:00:54;28.00;47.40
75824;DHT22;64457;51.976;9.834;2023-05-31T15:03:22;28.10;45.50
75824;DHT22;64457;51.976;9.834;2023-05-31T15:05:50;28.50;44.80
75824;DHT22;64457;51.976;9.834;2023-05-31T15:08:19;28.20;44.40
75824;DHT22;64457;51.976;9.834;2023-05-31T15:10:50;28.10;46.10
75824;DHT22;64457;51.976;9.834;2023-05-31T15:13:18;27.90;46.00
75824;DHT22;64457;51.976;9.834;2023-05-31T15:15:45;27.80;46.80
75824;DHT22;64457;51.976;9.834;2023-05-31T15:18:13;28.00;46.80
75824;DHT22;64457;51.976;9.834;2023-05-31T15:20:41;28.30;44.70
75824;DHT22;64457;51.976;9.834;2023-05-31T15:23:09;28.10;45.80
75824;DHT22;64457;51.976;9.834;2023-05-31T15:25:39;28.10;44.70
75824;DHT22;64457;51.976;9.834;2023-05-31T15:28:07;28.00;45.20
75824;DHT22;64457;51.976;9.834;2023-05-31T15:30:34;27.90;43.90
75824;DHT22;64457;51.976;9.834;2023-05-31T15:33:02;27.80;45.30
75824;DHT22;64457;51.976;9.834;2023-05-31T15:35:30;27.70;46.00
75824;DHT22;64457;51.976;9.834;2023-05-31T15:38:00;27.60;46.30
75824;DHT22;64457;51.976;9.834;2023-05-31T15:40:28;27.60;45.20
75824;DHT22;64457;51.976;9.834;2023-05-31T15:42:57;27.60;45.00
75824;DHT22;64457;51.976;9.834;2023-05-31T15:45:25;27.40;45.70